EDT,Max TemperatureF,Mean TemperatureF,Min TemperatureF,Max Dew PointF,MeanDew PointF,Min DewpointF,Max Humidity, Mean Humidity, Min Humidity, Max Sea Level PressureIn, Mean Sea Level PressureIn, Min Sea Level PressureIn, Max VisibilityMiles, Mean VisibilityMiles, Min VisibilityMiles, Max Wind SpeedMPH, Mean Wind SpeedMPH, Max Gust SpeedMPH,PrecipitationIn, CloudCover, Events, WindDirDegrees
2013-9-1,86,77,68,68,66,63,93,72,51,29.87,29.84,29.80,10,10,7,12,3,14,0.00,6,,336
2013-9-2,81,73,65,70,67,62,93,78,62,29.81,29.73,29.66,10,10,2,22,6,32,0.47,6,Rain-Thunderstorm,168
2013-9-3,77,71,64,65,61,56,93,75,57,29.81,29.74,29.70,10,9,1,17,5,23,0.45,6,Rain,223
2013-9-4,74,67,60,61,58,54,97,75,53,29.92,29.88,29.82,10,10,5,16,6,21,0.20,6,Rain,257
2013-9-5,66,56,45,58,44,35,90,62,34,30.18,30.05,29.90,10,10,10,18,7,24,0.00,3,,357
2013-9-6,69,55,41,45,41,36,96,65,33,30.26,30.17,30.06,10,10,10,14,5,18,0.00,0,,189
2013-9-7,67,62,56,55,49,45,67,60,52,30.05,29.94,29.83,10,10,10,21,9,26,0.02,5,Rain,191
2013-9-8,65,55,44,55,45,36,92,66,39,30.12,29.93,29.78,10,10,6,23,9,29,0.29,5,Rain,338
2013-9-9,69,55,41,49,43,39,96,68,40,30.20,30.13,30.04,10,10,10,18,8,24,0.00,0,,180
2013-9-10,76,68,60,70,61,50,93,79,65,30.05,29.99,29.96,10,8,2,21,10,26,0.55,7,Rain,189
2013-9-11,91,81,70,75,70,66,87,72,56,29.99,29.93,29.88,10,8,1,24,11,36,0.32,4,Rain-Thunderstorm,194
2013-9-12,78,71,64,70,67,64,97,87,76,29.89,29.73,29.62,10,8,1,22,5,32,1.01,7,Rain-Thunderstorm,203
2013-9-13,65,59,52,63,57,50,93,85,77,29.88,29.74,29.61,10,7,1,17,9,22,0.16,8,Rain,322
2013-9-14,64,55,46,52,48,45,96,76,55,30.09,29.96,29.88,10,8,2,12,5,15,0.04,6,Rain,335
2013-9-15,68,56,43,53,48,42,100,76,52,30.14,30.08,30.01,10,10,10,16,6,22,0.04,3,Rain,177
2013-9-16,57,48,38,54,44,35,93,70,47,30.35,30.15,30.02,10,9,3,21,7,24,0.36,6,Rain,359
2013-9-17,63,49,35,45,38,34,92,66,39,30.49,30.40,30.33,10,8,0,9,1,14,0.00,1,Fog,89
2013-9-18,71,56,40,49,44,39,96,67,37,30.33,30.23,30.13,10,10,10,13,4,18,0.00,0,,187
2013-9-19,76,60,44,54,49,43,100,67,33,30.16,30.10,30.03,10,10,10,12,3,14,0.00,0,,181
2013-9-20,80,66,51,56,52,49,93,64,35,30.08,29.99,29.88,10,10,10,20,7,23,0.00,0,,176
2013-9-21,76,69,61,63,57,47,93,65,36,29.89,29.70,29.57,10,9,2,30,16,41,0.56,3,Rain,185
2013-9-22,63,56,48,63,51,41,93,75,57,29.91,29.70,29.56,10,9,2,20,9,25,0.27,8,Rain,270
2013-9-23,51,48,45,40,38,36,76,68,59,30.07,30.03,29.92,10,10,10,17,10,22,0.00,7,,309
2013-9-24,63,55,46,46,40,37,93,68,43,30.05,29.99,29.92,10,10,10,17,8,21,0.00,5,,329
2013-9-25,67,54,41,48,45,41,96,74,52,30.04,29.97,29.94,10,10,10,14,4,20,0.00,2,,23
2013-9-26,64,52,40,49,45,39,100,78,56,30.19,30.12,30.05,10,9,0,14,4,18,0.00,5,Fog,1
2013-9-27,66,57,48,51,49,48,96,74,52,30.31,30.25,30.18,10,10,10,12,2,16,0.00,5,,293
2013-9-28,74,60,45,53,48,45,100,69,38,30.38,30.32,30.24,10,6,0,7,1,10,0.00,2,Fog,357
2013-9-29,75,61,47,54,50,45,96,71,46,30.24,30.15,30.05,10,10,10,10,3,15,0.00,0,,190
2013-9-30,75,61,47,54,50,46,96,67,38,30.09,30.03,29.97,10,10,10,10,2,16,0.00,1,,165